sensor_id;sensor_type;location;lat;lon;timestamp;P1;durP1;ratioP1;P2;durP2;ratioP2
15655;SDS011;7928;43.614;1.456;2023-12-22T00:02:19;29.67;;;6.43;;
15655;SDS011;7928;43.614;1.456;2023-12-22T00:04:48;26.10;;;5.07;;
15655;SDS011;7928;43.614;1.456;2023-12-22T00:07:15;25.13;;;5.30;;
15655;SDS011;7928;43.614;1.456;2023-12-22T00:09:43;27.33;;;6.03;;
15655;SDS011;7928;43.614;1.456;2023-12-22T00:12:10;27.20;;;5.60;;
15655;SDS011;7928;43.614;1.456;2023-12-22T00:14:37;26.80;;;5.23;;
15655;SDS011;7928;43.614;1.456;2023-12-22T00:17:05;26.27;;;5.37;;
15655;SDS011;7928;43.614;1.456;2023-12-22T00:19:32;23.70;;;4.77;;
15655;SDS011;7928;43.614;1.456;2023-12-22T00:21:59;25.10;;;5.43;;
15655;SDS011;7928;43.614;1.456;2023-12-22T00:24:28;21.73;;;5.00;;
15655;SDS011;7928;43.614;1.456;2023-12-22T00:26:56;27.40;;;5.37;;
15655;SDS011;7928;43.614;1.456;2023-12-22T00:29:23;18.23;;;4.63;;
15655;SDS011;7928;43.614;1.456;2023-12-22T00:31:50;22.40;;;4.97;;
15655;SDS011;7928;43.614;1.456;2023-12-22T00:34:17;19.23;;;4.60;;
15655;SDS011;7928;43.614;1.456;2023-12-22T00:36:44;23.20;;;4.93;;
15655;SDS011;7928;43.614;1.456;2023-12-22T00:39:11;19.67;;;4.57;;
15655;SDS011;7928;43.614;1.456;2023-12-22T00:41:38;29.60;;;4.60;;
15655;SDS011;7928;43.614;1.456;2023-12-22T00:44:07;26.50;;;5.87;;
15655;SDS011;7928;43.614;1.456;2023-12-22T00:46:33;19.20;;;4.73;;
15655;SDS011;7928;43.614;1.456;2023-12-22T00:49:00;24.13;;;5.07;;
15655;SDS011;7928;43.614;1.456;2023-12-22T00:51:27;22.00;;;5.07;;
15655;SDS011;7928;43.614;1.456;2023-12-22T00:53:54;29.17;;;5.77;;
15655;SDS011;7928;43.614;1.456;2023-12-22T00:56:21;27.90;;;5.90;;
15655;SDS011;7928;43.614;1.456;2023-12-22T00:58:48;25.33;;;5.17;;
15655;SDS011;7928;43.614;1.456;2023-12-22T01:01:16;21.33;;;5.13;;
15655;SDS011;7928;43.614;1.456;2023-12-22T01:03:43;19.80;;;3.60;;
15655;SDS011;7928;43.614;1.456;2023-12-22T01:06:10;17.67;;;4.77;;
15655;SDS011;7928;43.614;1.456;2023-12-22T01:08:37;19.60;;;4.13;;
15655;SDS011;7928;43.614;1.456;2023-12-22T01:11:04;20.10;;;3.97;;
15655;SDS011;7928;43.614;1.456;2023-12-22T01:13:31;15.47;;;4.37;;
15655;SDS011;7928;43.614;1.456;2023-12-22T01:15:58;17.57;;;3.80;;
15655;SDS011;7928;43.614;1.456;2023-12-22T01:18:26;17.67;;;3.77;;
15655;SDS011;7928;43.614;1.456;2023-12-22T01:20:55;18.97;;;3.43;;
15655;SDS011;7928;43.614;1.456;2023-12-22T01:23:22;17.90;;;3.63;;
15655;SDS011;7928;43.614;1.456;2023-12-22T01:25:50;17.03;;;3.27;;
15655;SDS011;7928;43.614;1.456;2023-12-22T01:28:17;14.93;;;3.53;;
15655;SDS011;7928;43.614;1.456;2023-12-22T01:30:44;18.13;;;3.07;;
15655;SDS011;7928;43.614;1.456;2023-12-22T01:33:11;16.70;;;3.17;;
15655;SDS011;7928;43.614;1.456;2023-12-22T01:35:39;15.13;;;2.80;;
15655;SDS011;7928;43.614;1.456;2023-12-22T01:38:06;15.73;;;3.30;;
15655;SDS011;7928;43.614;1.456;2023-12-22T01:40:33;17.40;;;3.37;;
15655;SDS011;7928;43.614;1.456;2023-12-22T01:43:01;13.00;;;3.20;;
15655;SDS011;7928;43.614;1.456;2023-12-22T01:45:28;15.83;;;2.97;;
15655;SDS011;7928;43.614;1.456;2023-12-22T01:47:55;17.20;;;2.87;;
15655;SDS011;7928;43.614;1.456;2023-12-22T01:50:22;18.40;;;3.00;;
15655;SDS011;7928;43.614;1.456;2023-12-22T01:52:50;10.37;;;2.63;;
15655;SDS011;7928;43.614;1.456;2023-12-22T01:55:18;9.60;;;1.83;;
15655;SDS011;7928;43.614;1.456;2023-12-22T01:57:45;17.37;;;2.83;;
15655;SDS011;7928;43.614;1.456;2023-12-22T02:00:13;11.07;;;2.37;;
15655;SDS011;7928;43.614;1.456;2023-12-22T02:02:41;9.57;;;2.33;;
15655;SDS011;7928;43.614;1.456;2023-12-22T02:05:08;10.50;;;2.30;;
15655;SDS011;7928;43.614;1.456;2023-12-22T02:07:37;15.23;;;2.00;;
15655;SDS011;7928;43.614;1.456;2023-12-22T02:10:08;10.53;;;1.90;;
15655;SDS011;7928;43.614;1.456;2023-12-22T02:12:35;9.53;;;1.83;;
15655;SDS011;7928;43.614;1.456;2023-12-22T02:15:02;8.50;;;2.00;;
15655;SDS011;7928;43.614;1.456;2023-12-22T02:17:33;7.70;;;1.60;;
15655;SDS011;7928;43.614;1.456;2023-12-22T02:20:09;8.97;;;1.80;;
15655;SDS011;7928;43.614;1.456;2023-12-22T02:22:37;9.33;;;1.70;;
15655;SDS011;7928;43.614;1.456;2023-12-22T02:25:05;9.27;;;1.50;;
15655;SDS011;7928;43.614;1.456;2023-12-22T02:27:33;6.17;;;1.50;;
15655;SDS011;7928;43.614;1.456;2023-12-22T02:30:07;5.80;;;1.43;;
15655;SDS011;7928;43.614;1.456;2023-12-22T02:32:40;6.27;;;1.07;;
15655;SDS011;7928;43.614;1.456;2023-12-22T02:35:10;6.70;;;1.50;;
15655;SDS011;7928;43.614;1.456;2023-12-22T02:37:42;8.13;;;1.40;;
15655;SDS011;7928;43.614;1.456;2023-12-22T02:40:11;4.40;;;1.20;;
15655;SDS011;7928;43.614;1.456;2023-12-22T02:42:39;5.27;;;0.93;;
15655;SDS011;7928;43.614;1.456;2023-12-22T02:45:06;5.60;;;1.23;;
15655;SDS011;7928;43.614;1.456;2023-12-22T02:47:39;4.07;;;1.07;;
15655;SDS011;7928;43.614;1.456;2023-12-22T02:50:07;4.27;;;0.80;;
15655;SDS011;7928;43.614;1.456;2023-12-22T02:52:34;4.20;;;1.00;;
15655;SDS011;7928;43.614;1.456;2023-12-22T02:55:03;5.60;;;1.00;;
15655;SDS011;7928;43.614;1.456;2023-12-22T02:57:31;6.43;;;0.93;;
15655;SDS011;7928;43.614;1.456;2023-12-22T02:59:58;6.67;;;0.90;;
15655;SDS011;7928;43.614;1.456;2023-12-22T03:02:25;5.03;;;1.00;;
15655;SDS011;7928;43.614;1.456;2023-12-22T03:04:52;4.63;;;1.00;;
15655;SDS011;7928;43.614;1.456;2023-12-22T03:07:19;4.77;;;1.40;;
15655;SDS011;7928;43.614;1.456;2023-12-22T03:09:46;5.27;;;0.90;;
15655;SDS011;7928;43.614;1.456;2023-12-22T03:12:14;3.93;;;0.80;;
15655;SDS011;7928;43.614;1.456;2023-12-22T03:14:41;7.27;;;1.00;;
15655;SDS011;7928;43.614;1.456;2023-12-22T03:17:08;4.20;;;1.10;;
15655;SDS011;7928;43.614;1.456;2023-12-22T03:19:36;5.33;;;0.70;;
15655;SDS011;7928;43.614;1.456;2023-12-22T03:22:03;5.27;;;0.73;;
15655;SDS011;7928;43.614;1.456;2023-12-22T03:24:30;1.47;;;0.50;;
15655;SDS011;7928;43.614;1.456;2023-12-22T03:26:57;2.50;;;0.47;;
15655;SDS011;7928;43.614;1.456;2023-12-22T03:29:25;3.77;;;1.00;;
15655;SDS011;7928;43.614;1.456;2023-12-22T03:31:52;1.30;;;0.30;;
15655;SDS011;7928;43.614;1.456;2023-12-22T03:34:19;4.53;;;0.73;;
15655;SDS011;7928;43.614;1.456;2023-12-22T03:36:46;2.40;;;0.70;;
15655;SDS011;7928;43.614;1.456;2023-12-22T03:39:14;2.83;;;0.70;;
15655;SDS011;7928;43.614;1.456;2023-12-22T03:41:41;2.10;;;0.57;;
15655;SDS011;7928;43.614;1.456;2023-12-22T03:44:08;2.03;;;0.50;;
15655;SDS011;7928;43.614;1.456;2023-12-22T03:46:36;2.53;;;0.43;;
15655;SDS011;7928;43.614;1.456;2023-12-22T03:49:03;2.57;;;0.60;;
15655;SDS011;7928;43.614;1.456;2023-12-22T03:51:30;3.50;;;0.73;;
15655;SDS011;7928;43.614;1.456;2023-12-22T03:53:57;3.50;;;0.67;;
15655;SDS011;7928;43.614;1.456;2023-12-22T03:56:24;3.33;;;0.60;;
15655;SDS011;7928;43.614;1.456;2023-12-22T03:58:51;2.53;;;0.40;;
15655;SDS011;7928;43.614;1.456;2023-12-22T04:01:17;2.73;;;0.40;;
15655;SDS011;7928;43.614;1.456;2023-12-22T04:03:46;2.80;;;0.43;;
15655;SDS011;7928;43.614;1.456;2023-12-22T04:06:13;1.87;;;0.40;;
15655;SDS011;7928;43.614;1.456;2023-12-22T04:08:40;2.50;;;0.40;;
15655;SDS011;7928;43.614;1.456;2023-12-22T04:11:07;3.83;;;0.47;;
15655;SDS011;7928;43.614;1.456;2023-12-22T04:13:33;4.33;;;0.77;;
15655;SDS011;7928;43.614;1.456;2023-12-22T04:16:00;0.97;;;0.40;;
15655;SDS011;7928;43.614;1.456;2023-12-22T04:18:29;1.20;;;0.30;;
15655;SDS011;7928;43.614;1.456;2023-12-22T04:20:58;2.80;;;0.30;;
15655;SDS011;7928;43.614;1.456;2023-12-22T04:23:25;1.33;;;0.40;;
15655;SDS011;7928;43.614;1.456;2023-12-22T04:25:52;2.23;;;0.50;;
15655;SDS011;7928;43.614;1.456;2023-12-22T04:28:19;2.13;;;0.40;;
15655;SDS011;7928;43.614;1.456;2023-12-22T04:30:46;2.20;;;0.70;;
15655;SDS011;7928;43.614;1.456;2023-12-22T04:33:13;1.73;;;0.47;;
15655;SDS011;7928;43.614;1.456;2023-12-22T04:35:39;1.23;;;0.30;;
15655;SDS011;7928;43.614;1.456;2023-12-22T04:38:08;2.20;;;0.30;;
15655;SDS011;7928;43.614;1.456;2023-12-22T04:40:35;3.17;;;0.40;;
15655;SDS011;7928;43.614;1.456;2023-12-22T04:43:02;1.93;;;0.30;;
15655;SDS011;7928;43.614;1.456;2023-12-22T04:45:29;1.03;;;0.30;;
15655;SDS011;7928;43.614;1.456;2023-12-22T04:47:56;2.77;;;0.30;;
15655;SDS011;7928;43.614;1.456;2023-12-22T04:50:23;3.50;;;0.40;;
15655;SDS011;7928;43.614;1.456;2023-12-22T04:52:50;0.73;;;0.30;;
15655;SDS011;7928;43.614;1.456;2023-12-22T04:55:18;1.43;;;0.30;;
15655;SDS011;7928;43.614;1.456;2023-12-22T04:57:47;1.83;;;0.30;;
15655;SDS011;7928;43.614;1.456;2023-12-22T05:00:14;2.40;;;0.50;;
15655;SDS011;7928;43.614;1.456;2023-12-22T05:02:41;1.27;;;0.30;;
15655;SDS011;7928;43.614;1.456;2023-12-22T05:05:08;0.93;;;0.20;;
15655;SDS011;7928;43.614;1.456;2023-12-22T05:07:36;1.33;;;0.30;;
15655;SDS011;7928;43.614;1.456;2023-12-22T05:10:05;0.70;;;0.10;;
15655;SDS011;7928;43.614;1.456;2023-12-22T05:12:33;1.70;;;0.50;;
15655;SDS011;7928;43.614;1.456;2023-12-22T05:15:00;0.97;;;0.10;;
15655;SDS011;7928;43.614;1.456;2023-12-22T05:17:27;0.60;;;0.10;;
15655;SDS011;7928;43.614;1.456;2023-12-22T05:19:54;0.60;;;0.20;;
15655;SDS011;7928;43.614;1.456;2023-12-22T05:22:21;0.83;;;0.20;;
15655;SDS011;7928;43.614;1.456;2023-12-22T05:24:48;1.03;;;0.10;;
15655;SDS011;7928;43.614;1.456;2023-12-22T05:27:15;1.63;;;0.37;;
15655;SDS011;7928;43.614;1.456;2023-12-22T05:29:43;0.33;;;0.20;;
15655;SDS011;7928;43.614;1.456;2023-12-22T05:32:10;0.60;;;0.23;;
15655;SDS011;7928;43.614;1.456;2023-12-22T05:34:37;0.67;;;0.10;;
15655;SDS011;7928;43.614;1.456;2023-12-22T05:37:04;0.67;;;0.20;;
15655;SDS011;7928;43.614;1.456;2023-12-22T05:39:31;0.73;;;0.17;;
15655;SDS011;7928;43.614;1.456;2023-12-22T05:41:58;0.20;;;0.10;;
15655;SDS011;7928;43.614;1.456;2023-12-22T05:44:25;0.20;;;0.10;;
15655;SDS011;7928;43.614;1.456;2023-12-22T05:46:55;0.20;;;0.10;;
15655;SDS011;7928;43.614;1.456;2023-12-22T05:49:22;1.83;;;0.20;;
15655;SDS011;7928;43.614;1.456;2023-12-22T05:51:50;2.33;;;0.10;;
15655;SDS011;7928;43.614;1.456;2023-12-22T05:54:17;0.97;;;0.30;;
15655;SDS011;7928;43.614;1.456;2023-12-22T05:56:45;1.43;;;0.53;;
15655;SDS011;7928;43.614;1.456;2023-12-22T05:59:12;1.03;;;0.30;;
15655;SDS011;7928;43.614;1.456;2023-12-22T06:01:39;4.17;;;0.30;;
15655;SDS011;7928;43.614;1.456;2023-12-22T06:04:07;3.20;;;0.30;;
15655;SDS011;7928;43.614;1.456;2023-12-22T06:06:35;1.13;;;0.10;;
15655;SDS011;7928;43.614;1.456;2023-12-22T06:09:03;2.67;;;0.20;;
15655;SDS011;7928;43.614;1.456;2023-12-22T06:11:30;1.63;;;0.30;;
15655;SDS011;7928;43.614;1.456;2023-12-22T06:13:57;1.70;;;0.30;;
15655;SDS011;7928;43.614;1.456;2023-12-22T06:16:24;0.57;;;0.30;;
15655;SDS011;7928;43.614;1.456;2023-12-22T06:18:51;0.97;;;0.30;;
15655;SDS011;7928;43.614;1.456;2023-12-22T06:21:19;1.53;;;0.30;;
15655;SDS011;7928;43.614;1.456;2023-12-22T06:23:46;0.80;;;0.20;;
15655;SDS011;7928;43.614;1.456;2023-12-22T06:26:13;0.83;;;0.40;;
15655;SDS011;7928;43.614;1.456;2023-12-22T06:28:40;1.00;;;0.30;;
15655;SDS011;7928;43.614;1.456;2023-12-22T06:31:07;0.50;;;0.30;;
15655;SDS011;7928;43.614;1.456;2023-12-22T06:33:34;1.47;;;0.20;;
15655;SDS011;7928;43.614;1.456;2023-12-22T06:36:01;0.57;;;0.20;;
15655;SDS011;7928;43.614;1.456;2023-12-22T06:38:30;1.53;;;0.30;;
15655;SDS011;7928;43.614;1.456;2023-12-22T06:40:57;0.73;;;0.17;;
15655;SDS011;7928;43.614;1.456;2023-12-22T06:43:24;0.80;;;0.20;;
15655;SDS011;7928;43.614;1.456;2023-12-22T06:45:51;0.47;;;0.10;;
15655;SDS011;7928;43.614;1.456;2023-12-22T06:48:20;0.27;;;0.10;;
15655;SDS011;7928;43.614;1.456;2023-12-22T06:50:47;0.97;;;0.10;;
15655;SDS011;7928;43.614;1.456;2023-12-22T06:53:14;0.83;;;0.20;;
15655;SDS011;7928;43.614;1.456;2023-12-22T06:55:42;0.40;;;0.20;;
15655;SDS011;7928;43.614;1.456;2023-12-22T06:58:09;1.27;;;0.30;;
15655;SDS011;7928;43.614;1.456;2023-12-22T07:00:36;0.40;;;0.20;;
15655;SDS011;7928;43.614;1.456;2023-12-22T07:03:04;1.70;;;0.20;;
15655;SDS011;7928;43.614;1.456;2023-12-22T07:05:33;1.77;;;0.50;;
15655;SDS011;7928;43.614;1.456;2023-12-22T07:08:03;1.03;;;0.30;;
15655;SDS011;7928;43.614;1.456;2023-12-22T07:10:31;1.17;;;0.53;;
15655;SDS011;7928;43.614;1.456;2023-12-22T07:12:59;1.53;;;0.30;;
15655;SDS011;7928;43.614;1.456;2023-12-22T07:15:26;0.87;;;0.20;;
15655;SDS011;7928;43.614;1.456;2023-12-22T07:17:53;1.70;;;0.30;;
15655;SDS011;7928;43.614;1.456;2023-12-22T07:20:21;1.93;;;0.57;;
15655;SDS011;7928;43.614;1.456;2023-12-22T07:22:48;1.07;;;0.23;;
15655;SDS011;7928;43.614;1.456;2023-12-22T07:25:16;2.37;;;0.43;;
15655;SDS011;7928;43.614;1.456;2023-12-22T07:27:45;0.90;;;0.30;;
15655;SDS011;7928;43.614;1.456;2023-12-22T07:30:14;0.70;;;0.20;;
15655;SDS011;7928;43.614;1.456;2023-12-22T07:32:45;2.00;;;0.37;;
15655;SDS011;7928;43.614;1.456;2023-12-22T07:35:17;1.13;;;0.20;;
15655;SDS011;7928;43.614;1.456;2023-12-22T07:37:43;1.60;;;0.20;;
15655;SDS011;7928;43.614;1.456;2023-12-22T07:40:11;3.30;;;1.63;;
15655;SDS011;7928;43.614;1.456;2023-12-22T07:42:38;5.60;;;2.93;;
15655;SDS011;7928;43.614;1.456;2023-12-22T07:45:05;5.60;;;4.10;;
15655;SDS011;7928;43.614;1.456;2023-12-22T07:47:35;4.80;;;3.27;;
15655;SDS011;7928;43.614;1.456;2023-12-22T07:50:03;2.53;;;1.70;;
15655;SDS011;7928;43.614;1.456;2023-12-22T07:52:33;1.90;;;1.20;;
15655;SDS011;7928;43.614;1.456;2023-12-22T07:55:03;1.30;;;0.77;;
15655;SDS011;7928;43.614;1.456;2023-12-22T07:57:31;0.60;;;0.53;;
15655;SDS011;7928;43.614;1.456;2023-12-22T07:59:58;2.70;;;1.17;;
15655;SDS011;7928;43.614;1.456;2023-12-22T08:02:26;1.33;;;0.80;;
15655;SDS011;7928;43.614;1.456;2023-12-22T08:04:54;1.23;;;0.60;;
15655;SDS011;7928;43.614;1.456;2023-12-22T08:07:21;3.57;;;0.43;;
15655;SDS011;7928;43.614;1.456;2023-12-22T08:09:48;1.87;;;0.43;;
15655;SDS011;7928;43.614;1.456;2023-12-22T08:12:15;1.23;;;0.30;;
15655;SDS011;7928;43.614;1.456;2023-12-22T08:14:42;1.17;;;0.40;;
15655;SDS011;7928;43.614;1.456;2023-12-22T08:17:09;0.80;;;0.30;;
15655;SDS011;7928;43.614;1.456;2023-12-22T08:19:38;1.70;;;0.40;;
15655;SDS011;7928;43.614;1.456;2023-12-22T08:22:09;1.07;;;0.23;;
15655;SDS011;7928;43.614;1.456;2023-12-22T08:24:38;2.47;;;0.30;;
15655;SDS011;7928;43.614;1.456;2023-12-22T08:27:05;1.83;;;0.40;;
15655;SDS011;7928;43.614;1.456;2023-12-22T08:29:32;0.50;;;0.20;;
15655;SDS011;7928;43.614;1.456;2023-12-22T08:31:59;0.87;;;0.30;;
15655;SDS011;7928;43.614;1.456;2023-12-22T08:34:26;0.10;;;0.10;;
15655;SDS011;7928;43.614;1.456;2023-12-22T08:36:53;1.70;;;0.40;;
15655;SDS011;7928;43.614;1.456;2023-12-22T08:39:21;0.40;;;0.10;;
15655;SDS011;7928;43.614;1.456;2023-12-22T08:41:50;0.93;;;0.50;;
15655;SDS011;7928;43.614;1.456;2023-12-22T08:44:17;1.17;;;0.53;;
15655;SDS011;7928;43.614;1.456;2023-12-22T08:46:44;1.50;;;0.87;;
15655;SDS011;7928;43.614;1.456;2023-12-22T08:49:11;0.40;;;0.30;;
15655;SDS011;7928;43.614;1.456;2023-12-22T08:51:38;0.73;;;0.30;;
15655;SDS011;7928;43.614;1.456;2023-12-22T08:54:05;3.97;;;0.30;;
15655;SDS011;7928;43.614;1.456;2023-12-22T08:56:33;2.30;;;0.57;;
15655;SDS011;7928;43.614;1.456;2023-12-22T08:59:01;0.57;;;0.30;;
15655;SDS011;7928;43.614;1.456;2023-12-22T09:01:28;0.73;;;0.20;;
15655;SDS011;7928;43.614;1.456;2023-12-22T09:03:55;0.97;;;0.27;;
15655;SDS011;7928;43.614;1.456;2023-12-22T09:06:22;1.30;;;0.40;;
15655;SDS011;7928;43.614;1.456;2023-12-22T09:08:50;1.27;;;0.30;;
15655;SDS011;7928;43.614;1.456;2023-12-22T09:11:19;1.63;;;0.40;;
15655;SDS011;7928;43.614;1.456;2023-12-22T09:13:48;1.73;;;0.37;;
15655;SDS011;7928;43.614;1.456;2023-12-22T09:16:19;1.90;;;0.67;;
15655;SDS011;7928;43.614;1.456;2023-12-22T09:18:47;0.63;;;0.40;;
15655;SDS011;7928;43.614;1.456;2023-12-22T09:21:14;1.47;;;0.30;;
15655;SDS011;7928;43.614;1.456;2023-12-22T09:23:42;1.17;;;0.40;;
15655;SDS011;7928;43.614;1.456;2023-12-22T09:26:11;4.60;;;0.80;;
15655;SDS011;7928;43.614;1.456;2023-12-22T09:28:38;2.90;;;0.80;;
15655;SDS011;7928;43.614;1.456;2023-12-22T09:31:07;1.43;;;0.30;;
15655;SDS011;7928;43.614;1.456;2023-12-22T09:33:34;1.33;;;0.33;;
15655;SDS011;7928;43.614;1.456;2023-12-22T09:36:01;1.10;;;0.30;;
15655;SDS011;7928;43.614;1.456;2023-12-22T09:38:29;1.37;;;0.30;;
15655;SDS011;7928;43.614;1.456;2023-12-22T09:40:56;0.97;;;0.30;;
15655;SDS011;7928;43.614;1.456;2023-12-22T09:43:24;2.00;;;0.30;;
15655;SDS011;7928;43.614;1.456;2023-12-22T09:45:51;0.87;;;0.30;;
15655;SDS011;7928;43.614;1.456;2023-12-22T09:48:21;1.33;;;0.20;;
15655;SDS011;7928;43.614;1.456;2023-12-22T09:50:52;1.37;;;0.20;;
15655;SDS011;7928;43.614;1.456;2023-12-22T09:53:20;1.37;;;0.30;;
15655;SDS011;7928;43.614;1.456;2023-12-22T09:55:48;0.50;;;0.13;;
15655;SDS011;7928;43.614;1.456;2023-12-22T09:58:16;1.23;;;0.20;;
15655;SDS011;7928;43.614;1.456;2023-12-22T10:00:43;1.27;;;0.50;;
15655;SDS011;7928;43.614;1.456;2023-12-22T10:03:11;1.83;;;0.77;;
15655;SDS011;7928;43.614;1.456;2023-12-22T10:05:40;0.93;;;0.20;;
15655;SDS011;7928;43.614;1.456;2023-12-22T10:08:08;0.30;;;0.20;;
15655;SDS011;7928;43.614;1.456;2023-12-22T10:10:37;0.97;;;0.30;;
15655;SDS011;7928;43.614;1.456;2023-12-22T10:13:05;1.57;;;0.27;;
15655;SDS011;7928;43.614;1.456;2023-12-22T10:15:35;0.70;;;0.30;;
15655;SDS011;7928;43.614;1.456;2023-12-22T10:18:06;1.23;;;0.20;;
15655;SDS011;7928;43.614;1.456;2023-12-22T10:20:33;1.97;;;0.57;;
15655;SDS011;7928;43.614;1.456;2023-12-22T10:23:03;1.07;;;0.20;;
15655;SDS011;7928;43.614;1.456;2023-12-22T10:25:31;0.30;;;0.10;;
15655;SDS011;7928;43.614;1.456;2023-12-22T10:27:58;1.63;;;0.30;;
15655;SDS011;7928;43.614;1.456;2023-12-22T10:30:25;1.60;;;0.30;;
15655;SDS011;7928;43.614;1.456;2023-12-22T10:32:54;0.60;;;0.20;;
15655;SDS011;7928;43.614;1.456;2023-12-22T10:35:21;0.23;;;0.20;;
15655;SDS011;7928;43.614;1.456;2023-12-22T10:37:49;1.10;;;0.30;;
15655;SDS011;7928;43.614;1.456;2023-12-22T10:40:19;0.20;;;0.20;;
15655;SDS011;7928;43.614;1.456;2023-12-22T10:42:46;0.60;;;0.23;;
15655;SDS011;7928;43.614;1.456;2023-12-22T10:45:14;0.43;;;0.20;;
15655;SDS011;7928;43.614;1.456;2023-12-22T10:47:42;0.50;;;0.30;;
15655;SDS011;7928;43.614;1.456;2023-12-22T10:50:11;1.80;;;0.20;;
15655;SDS011;7928;43.614;1.456;2023-12-22T10:52:38;1.00;;;0.30;;
15655;SDS011;7928;43.614;1.456;2023-12-22T10:55:05;1.27;;;0.30;;
15655;SDS011;7928;43.614;1.456;2023-12-22T10:57:34;1.33;;;0.50;;
15655;SDS011;7928;43.614;1.456;2023-12-22T11:00:03;0.30;;;0.20;;
15655;SDS011;7928;43.614;1.456;2023-12-22T11:02:34;1.90;;;0.43;;
15655;SDS011;7928;43.614;1.456;2023-12-22T11:05:02;1.00;;;0.20;;
15655;SDS011;7928;43.614;1.456;2023-12-22T11:07:32;1.43;;;0.40;;
15655;SDS011;7928;43.614;1.456;2023-12-22T11:10:02;1.40;;;0.40;;
15655;SDS011;7928;43.614;1.456;2023-12-22T11:12:31;0.53;;;0.30;;
15655;SDS011;7928;43.614;1.456;2023-12-22T11:15:01;0.70;;;0.40;;
15655;SDS011;7928;43.614;1.456;2023-12-22T11:17:32;0.50;;;0.23;;
15655;SDS011;7928;43.614;1.456;2023-12-22T11:19:59;0.67;;;0.30;;
15655;SDS011;7928;43.614;1.456;2023-12-22T11:22:27;0.83;;;0.33;;
15655;SDS011;7928;43.614;1.456;2023-12-22T11:24:57;0.80;;;0.23;;
15655;SDS011;7928;43.614;1.456;2023-12-22T11:27:26;2.20;;;0.33;;
15655;SDS011;7928;43.614;1.456;2023-12-22T11:29:55;1.00;;;0.40;;
15655;SDS011;7928;43.614;1.456;2023-12-22T11:32:24;0.70;;;0.30;;
15655;SDS011;7928;43.614;1.456;2023-12-22T11:34:53;0.60;;;0.40;;
15655;SDS011;7928;43.614;1.456;2023-12-22T11:37:20;0.83;;;0.30;;
15655;SDS011;7928;43.614;1.456;2023-12-22T11:39:47;0.77;;;0.30;;
15655;SDS011;7928;43.614;1.456;2023-12-22T11:42:17;1.10;;;0.50;;
15655;SDS011;7928;43.614;1.456;2023-12-22T11:44:46;3.83;;;0.50;;
15655;SDS011;7928;43.614;1.456;2023-12-22T11:47:13;0.50;;;0.27;;
15655;SDS011;7928;43.614;1.456;2023-12-22T11:49:42;0.70;;;0.30;;
15655;SDS011;7928;43.614;1.456;2023-12-22T11:52:10;0.63;;;0.40;;
15655;SDS011;7928;43.614;1.456;2023-12-22T11:54:45;0.97;;;0.40;;
15655;SDS011;7928;43.614;1.456;2023-12-22T11:57:31;0.83;;;0.40;;
15655;SDS011;7928;43.614;1.456;2023-12-22T12:00:00;1.30;;;0.50;;
15655;SDS011;7928;43.614;1.456;2023-12-22T12:02:32;0.83;;;0.20;;
15655;SDS011;7928;43.614;1.456;2023-12-22T12:05:00;2.73;;;0.20;;
15655;SDS011;7928;43.614;1.456;2023-12-22T12:07:41;0.60;;;0.20;;
15655;SDS011;7928;43.614;1.456;2023-12-22T12:10:10;0.90;;;0.40;;
15655;SDS011;7928;43.614;1.456;2023-12-22T12:12:39;2.40;;;0.30;;
15655;SDS011;7928;43.614;1.456;2023-12-22T12:15:06;0.90;;;0.40;;
15655;SDS011;7928;43.614;1.456;2023-12-22T12:17:38;0.60;;;0.40;;
15655;SDS011;7928;43.614;1.456;2023-12-22T12:20:07;0.60;;;0.40;;
15655;SDS011;7928;43.614;1.456;2023-12-22T12:22:36;1.80;;;0.30;;
15655;SDS011;7928;43.614;1.456;2023-12-22T12:25:07;2.33;;;0.40;;
15655;SDS011;7928;43.614;1.456;2023-12-22T12:27:35;1.00;;;0.40;;
15655;SDS011;7928;43.614;1.456;2023-12-22T12:30:10;1.40;;;0.40;;
15655;SDS011;7928;43.614;1.456;2023-12-22T12:32:40;1.60;;;0.20;;
15655;SDS011;7928;43.614;1.456;2023-12-22T12:35:11;0.90;;;0.30;;
15655;SDS011;7928;43.614;1.456;2023-12-22T12:37:39;1.20;;;0.30;;
15655;SDS011;7928;43.614;1.456;2023-12-22T12:40:07;1.10;;;0.30;;
15655;SDS011;7928;43.614;1.456;2023-12-22T12:42:37;2.57;;;0.63;;
15655;SDS011;7928;43.614;1.456;2023-12-22T12:45:05;0.77;;;0.20;;
15655;SDS011;7928;43.614;1.456;2023-12-22T12:47:33;2.10;;;0.50;;
15655;SDS011;7928;43.614;1.456;2023-12-22T12:50:00;0.47;;;0.20;;
15655;SDS011;7928;43.614;1.456;2023-12-22T12:52:29;0.40;;;0.20;;
15655;SDS011;7928;43.614;1.456;2023-12-22T12:54:56;0.50;;;0.20;;
15655;SDS011;7928;43.614;1.456;2023-12-22T12:57:25;0.60;;;0.20;;
15655;SDS011;7928;43.614;1.456;2023-12-22T12:59:52;0.63;;;0.30;;
15655;SDS011;7928;43.614;1.456;2023-12-22T13:02:19;0.97;;;0.30;;
15655;SDS011;7928;43.614;1.456;2023-12-22T13:04:47;1.70;;;0.40;;
15655;SDS011;7928;43.614;1.456;2023-12-22T13:07:23;0.60;;;0.20;;
15655;SDS011;7928;43.614;1.456;2023-12-22T13:09:52;0.63;;;0.30;;
15655;SDS011;7928;43.614;1.456;2023-12-22T13:12:22;0.70;;;0.40;;
15655;SDS011;7928;43.614;1.456;2023-12-22T13:14:49;0.30;;;0.23;;
15655;SDS011;7928;43.614;1.456;2023-12-22T13:17:17;0.57;;;0.30;;
15655;SDS011;7928;43.614;1.456;2023-12-22T13:19:44;0.97;;;0.37;;
15655;SDS011;7928;43.614;1.456;2023-12-22T13:22:11;0.70;;;0.50;;
15655;SDS011;7928;43.614;1.456;2023-12-22T13:24:39;0.83;;;0.20;;
15655;SDS011;7928;43.614;1.456;2023-12-22T13:27:07;1.50;;;0.20;;
15655;SDS011;7928;43.614;1.456;2023-12-22T13:29:43;0.77;;;0.30;;
15655;SDS011;7928;43.614;1.456;2023-12-22T13:32:16;0.90;;;0.40;;
15655;SDS011;7928;43.614;1.456;2023-12-22T13:34:50;0.60;;;0.30;;
15655;SDS011;7928;43.614;1.456;2023-12-22T13:37:17;0.50;;;0.30;;
15655;SDS011;7928;43.614;1.456;2023-12-22T13:39:45;0.80;;;0.40;;
15655;SDS011;7928;43.614;1.456;2023-12-22T13:42:17;0.93;;;0.20;;
15655;SDS011;7928;43.614;1.456;2023-12-22T13:44:46;0.60;;;0.23;;
15655;SDS011;7928;43.614;1.456;2023-12-22T13:47:14;0.53;;;0.30;;
15655;SDS011;7928;43.614;1.456;2023-12-22T13:49:42;0.87;;;0.30;;
15655;SDS011;7928;43.614;1.456;2023-12-22T13:52:23;1.20;;;0.30;;
15655;SDS011;7928;43.614;1.456;2023-12-22T13:54:52;1.00;;;0.40;;
15655;SDS011;7928;43.614;1.456;2023-12-22T13:57:23;0.73;;;0.30;;
15655;SDS011;7928;43.614;1.456;2023-12-22T13:59:50;0.73;;;0.20;;
15655;SDS011;7928;43.614;1.456;2023-12-22T14:02:19;0.50;;;0.30;;
15655;SDS011;7928;43.614;1.456;2023-12-22T14:04:47;0.60;;;0.30;;
15655;SDS011;7928;43.614;1.456;2023-12-22T14:07:14;0.60;;;0.40;;
15655;SDS011;7928;43.614;1.456;2023-12-22T14:09:42;1.27;;;0.30;;
15655;SDS011;7928;43.614;1.456;2023-12-22T14:12:09;1.37;;;0.30;;
15655;SDS011;7928;43.614;1.456;2023-12-22T14:14:37;0.73;;;0.30;;
15655;SDS011;7928;43.614;1.456;2023-12-22T14:17:04;0.20;;;0.10;;
15655;SDS011;7928;43.614;1.456;2023-12-22T14:19:31;0.60;;;0.20;;
15655;SDS011;7928;43.614;1.456;2023-12-22T14:21:58;0.93;;;0.20;;
15655;SDS011;7928;43.614;1.456;2023-12-22T14:24:25;0.20;;;0.10;;
15655;SDS011;7928;43.614;1.456;2023-12-22T14:26:53;0.30;;;0.20;;
15655;SDS011;7928;43.614;1.456;2023-12-22T14:29:21;1.73;;;0.20;;
15655;SDS011;7928;43.614;1.456;2023-12-22T14:31:50;7.90;;;0.40;;
15655;SDS011;7928;43.614;1.456;2023-12-22T14:34:17;0.30;;;0.20;;
15655;SDS011;7928;43.614;1.456;2023-12-22T14:36:45;1.07;;;0.30;;
15655;SDS011;7928;43.614;1.456;2023-12-22T14:39:12;0.40;;;0.40;;
15655;SDS011;7928;43.614;1.456;2023-12-22T14:41:39;1.73;;;0.40;;
15655;SDS011;7928;43.614;1.456;2023-12-22T14:44:07;0.63;;;0.33;;
15655;SDS011;7928;43.614;1.456;2023-12-22T14:46:36;0.60;;;0.40;;
15655;SDS011;7928;43.614;1.456;2023-12-22T14:49:06;1.13;;;0.20;;
15655;SDS011;7928;43.614;1.456;2023-12-22T14:51:36;1.77;;;0.57;;
15655;SDS011;7928;43.614;1.456;2023-12-22T14:54:03;2.00;;;0.40;;
15655;SDS011;7928;43.614;1.456;2023-12-22T14:56:30;1.37;;;0.40;;
15655;SDS011;7928;43.614;1.456;2023-12-22T14:58:57;1.37;;;0.50;;
15655;SDS011;7928;43.614;1.456;2023-12-22T15:01:24;2.30;;;0.70;;
15655;SDS011;7928;43.614;1.456;2023-12-22T15:03:52;2.07;;;0.50;;
15655;SDS011;7928;43.614;1.456;2023-12-22T15:06:20;1.20;;;0.70;;